sensor_id;sensor_type;location;lat;lon;timestamp;pressure;altitude;pressure_sealevel;temperature;humidity
69171;BME280;56279;47.902;12.308;2023-02-14T00:01:45;97209.56;;;0.43;95.29
69171;BME280;56279;47.902;12.308;2023-02-14T00:03:47;97207.78;;;0.44;95.54
69171;BME280;56279;47.902;12.308;2023-02-14T00:05:49;97212.19;;;0.43;95.50
69171;BME280;56279;47.902;12.308;2023-02-14T00:07:53;97209.56;;;0.43;95.47
69171;BME280;56279;47.902;12.308;2023-02-14T00:09:57;97213.13;;;0.42;94.95
69171;BME280;56279;47.902;12.308;2023-02-14T00:11:58;97211.41;;;0.35;95.38
69171;BME280;56279;47.902;12.308;2023-02-14T00:13:59;97209.31;;;0.30;95.37
69171;BME280;56279;47.902;12.308;2023-02-14T00:16:19;97214.63;;;0.29;95.88
69171;BME280;56279;47.902;12.308;2023-02-14T00:18:20;97213.69;;;0.30;95.42
69171;BME280;56279;47.902;12.308;2023-02-14T00:20:22;97222.09;;;0.32;95.66
69171;BME280;56279;47.902;12.308;2023-02-14T00:22:24;97217.88;;;0.31;95.53
69171;BME280;56279;47.902;12.308;2023-02-14T00:24:26;97217.09;;;0.30;95.85
69171;BME280;56279;47.902;12.308;2023-02-14T00:26:27;97216.09;;;0.31;95.48
69171;BME280;56279;47.902;12.308;2023-02-14T00:28:28;97214.31;;;0.32;95.86
69171;BME280;56279;47.902;12.308;2023-02-14T00:30:30;97209.13;;;0.32;95.62
69171;BME280;56279;47.902;12.308;2023-02-14T00:32:31;97206.53;;;0.32;95.99
69171;BME280;56279;47.902;12.308;2023-02-14T00:34:32;97210.59;;;0.34;96.19
69171;BME280;56279;47.902;12.308;2023-02-14T00:36:36;97200.34;;;0.33;94.99
69171;BME280;56279;47.902;12.308;2023-02-14T00:38:37;97200.34;;;0.33;95.81
69171;BME280;56279;47.902;12.308;2023-02-14T00:40:39;97204.41;;;0.35;95.75
69171;BME280;56279;47.902;12.308;2023-02-14T00:42:40;97202.78;;;0.34;95.06
69171;BME280;56279;47.902;12.308;2023-02-14T00:44:41;97197.47;;;0.28;95.18
69171;BME280;56279;47.902;12.308;2023-02-14T00:46:42;97205.91;;;0.22;94.50
69171;BME280;56279;47.902;12.308;2023-02-14T00:48:44;97208.84;;;0.19;94.98
69171;BME280;56279;47.902;12.308;2023-02-14T00:50:46;97204.63;;;0.18;94.89
69171;BME280;56279;47.902;12.308;2023-02-14T00:52:47;97214.81;;;0.19;95.05
69171;BME280;56279;47.902;12.308;2023-02-14T00:54:48;97215.63;;;0.20;95.47
69171;BME280;56279;47.902;12.308;2023-02-14T00:57:06;97214.81;;;0.19;95.18
69171;BME280;56279;47.902;12.308;2023-02-14T00:59:13;97212.09;;;0.21;95.56
69171;BME280;56279;47.902;12.308;2023-02-14T01:02:05;97220.19;;;0.18;95.04
69171;BME280;56279;47.902;12.308;2023-02-14T01:04:07;97214.03;;;0.19;95.16
69171;BME280;56279;47.902;12.308;2023-02-14T01:06:09;97207.84;;;0.20;95.43
69171;BME280;56279;47.902;12.308;2023-02-14T01:08:10;97217.28;;;0.21;95.05
69171;BME280;56279;47.902;12.308;2023-02-14T01:10:13;97230.06;;;0.22;95.45
69171;BME280;56279;47.902;12.308;2023-02-14T01:12:14;97225.84;;;0.21;95.44
69171;BME280;56279;47.902;12.308;2023-02-14T01:14:19;97226.66;;;0.22;95.54
69171;BME280;56279;47.902;12.308;2023-02-14T01:16:21;97229.25;;;0.22;95.79
69171;BME280;56279;47.902;12.308;2023-02-14T01:18:25;97222.09;;;0.24;96.06
69171;BME280;56279;47.902;12.308;2023-02-14T01:20:27;97231.53;;;0.25;96.12
69171;BME280;56279;47.902;12.308;2023-02-14T01:22:35;97235.41;;;0.29;95.21
69171;BME280;56279;47.902;12.308;2023-02-14T01:24:38;97234.75;;;0.35;95.91
69171;BME280;56279;47.902;12.308;2023-02-14T01:26:39;97240.25;;;0.40;95.60
69171;BME280;56279;47.902;12.308;2023-02-14T01:28:41;97235.72;;;0.42;95.02
69171;BME280;56279;47.902;12.308;2023-02-14T01:30:43;97226.13;;;0.42;94.99
69171;BME280;56279;47.902;12.308;2023-02-14T01:32:44;97226.63;;;0.46;96.08
69171;BME280;56279;47.902;12.308;2023-02-14T01:34:45;97224.66;;;0.48;95.62
69171;BME280;56279;47.902;12.308;2023-02-14T01:36:48;97218.31;;;0.50;95.64
69171;BME280;56279;47.902;12.308;2023-02-14T01:38:55;97231.13;;;0.52;95.40
69171;BME280;56279;47.902;12.308;2023-02-14T01:40:57;97224.78;;;0.54;95.82
69171;BME280;56279;47.902;12.308;2023-02-14T01:42:58;97221.06;;;0.57;95.45
69171;BME280;56279;47.902;12.308;2023-02-14T01:47:03;97223.16;;;0.61;95.42
69171;BME280;56279;47.902;12.308;2023-02-14T01:49:27;97225.09;;;0.59;95.58
69171;BME280;56279;47.902;12.308;2023-02-14T01:51:31;97216.50;;;0.59;95.71
69171;BME280;56279;47.902;12.308;2023-02-14T01:53:33;97216.66;;;0.57;95.72
69171;BME280;56279;47.902;12.308;2023-02-14T01:55:38;97221.53;;;0.60;95.31
69171;BME280;56279;47.902;12.308;2023-02-14T01:57:52;97225.91;;;0.60;95.36
69171;BME280;56279;47.902;12.308;2023-02-14T01:59:58;97224.94;;;0.61;95.88
69171;BME280;56279;47.902;12.308;2023-02-14T02:02:19;97222.31;;;0.61;95.61
69171;BME280;56279;47.902;12.308;2023-02-14T02:04:27;97220.72;;;0.60;95.96
69171;BME280;56279;47.902;12.308;2023-02-14T02:06:39;97214.53;;;0.61;95.49
69171;BME280;56279;47.902;12.308;2023-02-14T02:08:49;97215.03;;;0.64;95.48
69171;BME280;56279;47.902;12.308;2023-02-14T02:10:55;97222.63;;;0.66;95.58
69171;BME280;56279;47.902;12.308;2023-02-14T02:13:01;97219.41;;;0.64;95.31
69171;BME280;56279;47.902;12.308;2023-02-14T02:15:04;97222.50;;;0.59;95.94
69171;BME280;56279;47.902;12.308;2023-02-14T02:24:01;97213.91;;;0.59;95.62
69171;BME280;56279;47.902;12.308;2023-02-14T02:43:19;97199.31;;;0.58;95.41
69171;BME280;56279;47.902;12.308;2023-02-14T02:45:36;97194.44;;;0.55;95.12
69171;BME280;56279;47.902;12.308;2023-02-14T02:48:09;97196.41;;;0.53;95.31
69171;BME280;56279;47.902;12.308;2023-02-14T02:52:48;97192.03;;;0.45;95.30
69171;BME280;56279;47.902;12.308;2023-02-14T02:55:12;97195.78;;;0.43;95.37
69171;BME280;56279;47.902;12.308;2023-02-14T02:57:22;97181.19;;;0.42;95.50
69171;BME280;56279;47.902;12.308;2023-02-14T02:59:31;97183.94;;;0.40;95.39
69171;BME280;56279;47.902;12.308;2023-02-14T03:01:37;97187.03;;;0.36;95.28
69171;BME280;56279;47.902;12.308;2023-02-14T03:03:40;97183.16;;;0.32;95.77
69171;BME280;56279;47.902;12.308;2023-02-14T03:06:03;97179.94;;;0.30;95.60
69171;BME280;56279;47.902;12.308;2023-02-14T03:08:05;97185.94;;;0.30;96.05
69171;BME280;56279;47.902;12.308;2023-02-14T03:12:40;97181.88;;;0.28;95.46
69171;BME280;56279;47.902;12.308;2023-02-14T03:14:49;97187.22;;;0.26;96.24
69171;BME280;56279;47.902;12.308;2023-02-14T03:17:04;97184.63;;;0.26;95.81
69171;BME280;56279;47.902;12.308;2023-02-14T03:19:30;97176.03;;;0.26;95.54
69171;BME280;56279;47.902;12.308;2023-02-14T03:22:07;97182.38;;;0.23;95.75
69171;BME280;56279;47.902;12.308;2023-02-14T03:26:53;97187.56;;;0.23;95.25
69171;BME280;56279;47.902;12.308;2023-02-14T03:29:14;97190.16;;;0.23;95.50
69171;BME280;56279;47.902;12.308;2023-02-14T03:37:50;97179.56;;;0.33;95.67
69171;BME280;56279;47.902;12.308;2023-02-14T03:40:08;97180.38;;;0.33;94.99
69171;BME280;56279;47.902;12.308;2023-02-14T03:42:24;97182.03;;;0.34;95.30
69171;BME280;56279;47.902;12.308;2023-02-14T03:44:28;97189.16;;;0.32;95.35
69171;BME280;56279;47.902;12.308;2023-02-14T03:46:35;97179.28;;;0.28;95.76
69171;BME280;56279;47.902;12.308;2023-02-14T03:48:40;97185.44;;;0.27;94.97
69171;BME280;56279;47.902;12.308;2023-02-14T03:50:45;97185.75;;;0.24;95.96
69171;BME280;56279;47.902;12.308;2023-02-14T03:52:51;97188.53;;;0.22;95.63
69171;BME280;56279;47.902;12.308;2023-02-14T03:54:56;97192.91;;;0.22;95.65
69171;BME280;56279;47.902;12.308;2023-02-14T03:59:25;97186.44;;;0.18;95.91
69171;BME280;56279;47.902;12.308;2023-02-14T04:01:35;97188.88;;;0.19;95.78
69171;BME280;56279;47.902;12.308;2023-02-14T04:03:39;97183.53;;;0.21;95.04
69171;BME280;56279;47.902;12.308;2023-02-14T04:05:42;97186.91;;;0.21;95.48
69171;BME280;56279;47.902;12.308;2023-02-14T04:07:49;97192.09;;;0.21;95.80
69171;BME280;56279;47.902;12.308;2023-02-14T04:09:51;97191.47;;;0.19;95.74
69171;BME280;56279;47.902;12.308;2023-02-14T04:11:53;97191.63;;;0.18;95.55
69171;BME280;56279;47.902;12.308;2023-02-14T04:13:54;97195.19;;;0.17;96.07
69171;BME280;56279;47.902;12.308;2023-02-14T04:15:56;97191.63;;;0.18;95.64
69171;BME280;56279;47.902;12.308;2023-02-14T04:17:57;97188.88;;;0.19;95.94
69171;BME280;56279;47.902;12.308;2023-02-14T04:20:17;97184.66;;;0.18;95.67
69171;BME280;56279;47.902;12.308;2023-02-14T04:22:19;97187.41;;;0.17;95.10
69171;BME280;56279;47.902;12.308;2023-02-14T04:24:20;97187.41;;;0.17;95.33
69171;BME280;56279;47.902;12.308;2023-02-14T04:26:21;97185.16;;;0.14;94.98
69171;BME280;56279;47.902;12.308;2023-02-14T04:28:22;97176.38;;;0.15;95.40
69171;BME280;56279;47.902;12.308;2023-02-14T04:30:24;97178.03;;;0.16;95.40
69171;BME280;56279;47.902;12.308;2023-02-14T04:32:25;97184.03;;;0.16;95.57
69171;BME280;56279;47.902;12.308;2023-02-14T04:34:27;97185.50;;;0.11;94.82
69171;BME280;56279;47.902;12.308;2023-02-14T04:36:28;97174.78;;;0.06;94.90
69171;BME280;56279;47.902;12.308;2023-02-14T04:38:31;97176.56;;;0.05;95.05
69171;BME280;56279;47.902;12.308;2023-02-14T04:40:32;97176.56;;;0.05;94.97
69171;BME280;56279;47.902;12.308;2023-02-14T04:42:34;97173.97;;;0.05;94.96
69171;BME280;56279;47.902;12.308;2023-02-14T04:44:35;97168.28;;;0.10;95.65
69171;BME280;56279;47.902;12.308;2023-02-14T04:46:38;97172.19;;;0.14;95.19
69171;BME280;56279;47.902;12.308;2023-02-14T04:48:39;97170.72;;;0.11;94.91
69171;BME280;56279;47.902;12.308;2023-02-14T04:50:40;97175.91;;;0.11;95.21
69171;BME280;56279;47.902;12.308;2023-02-14T04:52:41;97170.09;;;0.09;94.90
69171;BME280;56279;47.902;12.308;2023-02-14T04:54:43;97170.75;;;0.03;94.61
69171;BME280;56279;47.902;12.308;2023-02-14T04:56:44;97166.38;;;-0.05;95.04
69171;BME280;56279;47.902;12.308;2023-02-14T04:58:45;97165.91;;;-0.08;95.04
69171;BME280;56279;47.902;12.308;2023-02-14T05:00:46;97162.53;;;-0.17;95.09
69171;BME280;56279;47.902;12.308;2023-02-14T05:02:48;97166.75;;;-0.24;95.56
69171;BME280;56279;47.902;12.308;2023-02-14T05:04:50;97171.94;;;-0.24;95.65
69171;BME280;56279;47.902;12.308;2023-02-14T05:06:51;97170.94;;;-0.23;95.72
69171;BME280;56279;47.902;12.308;2023-02-14T05:08:53;97171.94;;;-0.24;95.52
69171;BME280;56279;47.902;12.308;2023-02-14T05:10:55;97168.69;;;-0.26;95.48
69171;BME280;56279;47.902;12.308;2023-02-14T05:12:56;97157.34;;;-0.25;95.72
69171;BME280;56279;47.902;12.308;2023-02-14T05:14:57;97161.38;;;-0.22;95.92
69171;BME280;56279;47.902;12.308;2023-02-14T05:16:59;97172.41;;;-0.20;95.50
69171;BME280;56279;47.902;12.308;2023-02-14T05:19:00;97165.25;;;-0.18;95.68
69171;BME280;56279;47.902;12.308;2023-02-14T05:21:01;97159.25;;;-0.19;95.62
69171;BME280;56279;47.902;12.308;2023-02-14T05:23:03;97154.75;;;-0.17;95.22
69171;BME280;56279;47.902;12.308;2023-02-14T05:25:05;97163.81;;;-0.13;95.28
69171;BME280;56279;47.902;12.308;2023-02-14T05:27:06;97160.22;;;-0.12;95.31
69171;BME280;56279;47.902;12.308;2023-02-14T05:29:08;97162.81;;;-0.12;95.17
69171;BME280;56279;47.902;12.308;2023-02-14T05:31:09;97162.66;;;-0.10;95.98
69171;BME280;56279;47.902;12.308;2023-02-14T05:33:11;97164.28;;;-0.09;95.34
69171;BME280;56279;47.902;12.308;2023-02-14T05:35:12;97163.31;;;-0.08;95.25
69171;BME280;56279;47.902;12.308;2023-02-14T05:37:14;97165.72;;;-0.07;95.81
69171;BME280;56279;47.902;12.308;2023-02-14T05:39:15;97160.38;;;-0.05;95.18
69171;BME280;56279;47.902;12.308;2023-02-14T05:41:16;97160.22;;;-0.04;95.38
69171;BME280;56279;47.902;12.308;2023-02-14T05:43:17;97169.44;;;-0.01;95.18
69171;BME280;56279;47.902;12.308;2023-02-14T05:45:19;97169.28;;;0.00;95.51
69171;BME280;56279;47.902;12.308;2023-02-14T05:47:20;97168.63;;;-0.02;95.39
69171;BME280;56279;47.902;12.308;2023-02-14T05:49:21;97173.69;;;-0.08;94.93
69171;BME280;56279;47.902;12.308;2023-02-14T05:51:22;97178.38;;;-0.12;95.02
69171;BME280;56279;47.902;12.308;2023-02-14T05:53:25;97176.44;;;-0.18;95.06
69171;BME280;56279;47.902;12.308;2023-02-14T05:55:26;97178.72;;;-0.23;95.66
69171;BME280;56279;47.902;12.308;2023-02-14T05:57:27;97179.38;;;-0.29;95.25
69171;BME280;56279;47.902;12.308;2023-02-14T05:59:29;97180.84;;;-0.34;95.28
69171;BME280;56279;47.902;12.308;2023-02-14T06:01:30;97175.97;;;-0.37;95.70
69171;BME280;56279;47.902;12.308;2023-02-14T06:03:31;97176.31;;;-0.40;95.25
69171;BME280;56279;47.902;12.308;2023-02-14T06:05:33;97181.81;;;-0.43;95.32
69171;BME280;56279;47.902;12.308;2023-02-14T06:07:34;97178.09;;;-0.49;95.50
69171;BME280;56279;47.902;12.308;2023-02-14T06:09:37;97170.47;;;-0.50;95.43
69171;BME280;56279;47.902;12.308;2023-02-14T06:11:38;97170.66;;;-0.52;95.84
69171;BME280;56279;47.902;12.308;2023-02-14T06:13:39;97176.47;;;-0.50;95.86
69171;BME280;56279;47.902;12.308;2023-02-14T06:15:41;97176.47;;;-0.50;95.67
69171;BME280;56279;47.902;12.308;2023-02-14T06:17:43;97170.00;;;-0.54;95.53
69171;BME280;56279;47.902;12.308;2023-02-14T06:19:44;97170.78;;;-0.53;95.90
69171;BME280;56279;47.902;12.308;2023-02-14T06:21:45;97166.41;;;-0.53;95.83
69171;BME280;56279;47.902;12.308;2023-02-14T06:23:47;97175.03;;;-0.52;95.89
69171;BME280;56279;47.902;12.308;2023-02-14T06:25:48;97180.03;;;-0.51;95.87
69171;BME280;56279;47.902;12.308;2023-02-14T06:27:50;97181.03;;;-0.52;95.95
69171;BME280;56279;47.902;12.308;2023-02-14T06:29:51;97187.03;;;-0.51;96.10
69171;BME280;56279;47.902;12.308;2023-02-14T06:31:53;97190.41;;;-0.51;95.99
69171;BME280;56279;47.902;12.308;2023-02-14T06:33:54;97183.63;;;-0.52;95.91
69171;BME280;56279;47.902;12.308;2023-02-14T06:35:57;97186.34;;;-0.53;95.57
69171;BME280;56279;47.902;12.308;2023-02-14T06:38:04;97186.22;;;-0.52;95.46
69171;BME280;56279;47.902;12.308;2023-02-14T06:40:06;97189.63;;;-0.51;96.03
69171;BME280;56279;47.902;12.308;2023-02-14T06:42:07;97188.63;;;-0.50;95.92
69171;BME280;56279;47.902;12.308;2023-02-14T06:44:08;97189.75;;;-0.53;95.39
69171;BME280;56279;47.902;12.308;2023-02-14T06:46:10;97190.75;;;-0.54;95.79
69171;BME280;56279;47.902;12.308;2023-02-14T06:48:11;97194.94;;;-0.53;95.83
69171;BME280;56279;47.902;12.308;2023-02-14T06:50:12;97200.63;;;-0.49;96.02
69171;BME280;56279;47.902;12.308;2023-02-14T06:52:14;97194.13;;;-0.45;96.14
69171;BME280;56279;47.902;12.308;2023-02-14T06:54:15;97196.41;;;-0.42;95.95
69171;BME280;56279;47.902;12.308;2023-02-14T06:56:16;97194.28;;;-0.39;95.54
69171;BME280;56279;47.902;12.308;2023-02-14T06:58:17;97195.59;;;-0.43;95.82
69171;BME280;56279;47.902;12.308;2023-02-14T07:00:19;97205.31;;;-0.45;95.58
69171;BME280;56279;47.902;12.308;2023-02-14T07:02:20;97200.63;;;-0.41;95.80
69171;BME280;56279;47.902;12.308;2023-02-14T07:04:21;97204.50;;;-0.37;96.18
69171;BME280;56279;47.902;12.308;2023-02-14T07:06:23;97202.22;;;-0.32;96.01
69171;BME280;56279;47.902;12.308;2023-02-14T07:08:25;97204.34;;;-0.28;96.01
69171;BME280;56279;47.902;12.308;2023-02-14T07:10:26;97197.22;;;-0.26;95.88
69171;BME280;56279;47.902;12.308;2023-02-14T07:12:27;97204.19;;;-0.26;95.56
69171;BME280;56279;47.902;12.308;2023-02-14T07:14:28;97196.56;;;-0.28;95.75
69171;BME280;56279;47.902;12.308;2023-02-14T07:16:30;97192.50;;;-0.30;95.43
69171;BME280;56279;47.902;12.308;2023-02-14T07:18:32;97190.59;;;-0.28;96.01
69171;BME280;56279;47.902;12.308;2023-02-14T07:20:34;97189.28;;;-0.24;95.77
69171;BME280;56279;47.902;12.308;2023-02-14T07:22:36;97185.03;;;-0.25;95.24
69171;BME280;56279;47.902;12.308;2023-02-14T07:24:37;97185.22;;;-0.27;95.51
69171;BME280;56279;47.902;12.308;2023-02-14T07:26:39;97183.91;;;-0.23;96.02
69171;BME280;56279;47.902;12.308;2023-02-14T07:28:40;97183.91;;;-0.15;95.57
69171;BME280;56279;47.902;12.308;2023-02-14T07:30:42;97181.63;;;-0.10;96.03
69171;BME280;56279;47.902;12.308;2023-02-14T07:32:44;97177.56;;;-0.04;95.67
69171;BME280;56279;47.902;12.308;2023-02-14T07:34:45;97178.38;;;-0.04;95.27
69171;BME280;56279;47.902;12.308;2023-02-14T07:36:47;97177.41;;;-0.03;95.01
69171;BME280;56279;47.902;12.308;2023-02-14T07:38:49;97171.72;;;-0.06;95.52
69171;BME280;56279;47.902;12.308;2023-02-14T07:40:52;97176.75;;;-0.05;95.42
69171;BME280;56279;47.902;12.308;2023-02-14T07:42:55;97181.63;;;-0.02;95.24
69171;BME280;56279;47.902;12.308;2023-02-14T07:44:56;97174.16;;;0.04;95.57
69171;BME280;56279;47.902;12.308;2023-02-14T07:46:58;97180.47;;;0.09;95.03
69171;BME280;56279;47.902;12.308;2023-02-14T07:48:59;97176.06;;;0.10;95.14
69171;BME280;56279;47.902;12.308;2023-02-14T07:51:00;97170.72;;;0.11;94.61
69171;BME280;56279;47.902;12.308;2023-02-14T07:53:02;97167.16;;;0.12;95.13
69171;BME280;56279;47.902;12.308;2023-02-14T07:55:03;97173.78;;;0.15;94.96
69171;BME280;56279;47.902;12.308;2023-02-14T07:57:04;97176.38;;;0.15;95.29
69171;BME280;56279;47.902;12.308;2023-02-14T07:59:06;97168.28;;;0.18;95.09
69171;BME280;56279;47.902;12.308;2023-02-14T08:01:07;97168.41;;;0.24;94.70
69171;BME280;56279;47.902;12.308;2023-02-14T08:03:11;97168.88;;;0.36;94.91
69171;BME280;56279;47.902;12.308;2023-02-14T08:05:13;97156.00;;;0.42;94.73
69171;BME280;56279;47.902;12.308;2023-02-14T08:07:16;97162.00;;;0.51;94.09
69171;BME280;56279;47.902;12.308;2023-02-14T08:09:18;97172.34;;;0.59;94.69
69171;BME280;56279;47.902;12.308;2023-02-14T08:11:25;97168.09;;;0.66;94.76
69171;BME280;56279;47.902;12.308;2023-02-14T08:13:45;97169.03;;;0.73;93.78
69171;BME280;56279;47.902;12.308;2023-02-14T08:15:48;97165.25;;;0.84;93.51
69171;BME280;56279;47.902;12.308;2023-02-14T08:18:04;97158.41;;;0.91;94.39
69171;BME280;56279;47.902;12.308;2023-02-14T08:20:06;97153.31;;;0.97;94.01
69171;BME280;56279;47.902;12.308;2023-02-14T08:22:07;97163.50;;;1.07;93.84
69171;BME280;56279;47.902;12.308;2023-02-14T08:24:11;97144.44;;;1.14;93.72
69171;BME280;56279;47.902;12.308;2023-02-14T08:26:14;97145.75;;;1.10;93.24
69171;BME280;56279;47.902;12.308;2023-02-14T08:28:15;97153.94;;;0.99;92.84
69171;BME280;56279;47.902;12.308;2023-02-14T08:30:17;97154.28;;;0.96;92.93
69171;BME280;56279;47.902;12.308;2023-02-14T08:32:18;97153.63;;;1.02;93.56
69171;BME280;56279;47.902;12.308;2023-02-14T08:34:21;97154.69;;;1.08;93.58
69171;BME280;56279;47.902;12.308;2023-02-14T08:36:22;97152.91;;;1.08;93.33
69171;BME280;56279;47.902;12.308;2023-02-14T08:38:23;97145.63;;;1.04;92.16
69171;BME280;56279;47.902;12.308;2023-02-14T08:40:25;97154.25;;;1.04;92.94
69171;BME280;56279;47.902;12.308;2023-02-14T08:42:26;97156.66;;;1.06;92.44
69171;BME280;56279;47.902;12.308;2023-02-14T08:44:27;97146.03;;;1.15;92.87
69171;BME280;56279;47.902;12.308;2023-02-14T08:46:29;97147.25;;;1.27;93.04
69171;BME280;56279;47.902;12.308;2023-02-14T08:48:30;97144.88;;;1.40;92.30
69171;BME280;56279;47.902;12.308;2023-02-14T08:50:35;97141.59;;;1.47;92.11
69171;BME280;56279;47.902;12.308;2023-02-14T08:52:38;97141.06;;;1.51;92.40
69171;BME280;56279;47.902;12.308;2023-02-14T08:54:39;97136.31;;;1.55;92.31
69171;BME280;56279;47.902;12.308;2023-02-14T08:56:41;97139.72;;;1.55;92.15
69171;BME280;56279;47.902;12.308;2023-02-14T08:58:43;97137.59;;;1.59;91.81
69171;BME280;56279;47.902;12.308;2023-02-14T09:00:50;97134.91;;;1.67;91.46
69171;BME280;56279;47.902;12.308;2023-02-14T09:02:52;97136.63;;;1.74;90.96
69171;BME280;56279;47.902;12.308;2023-02-14T09:04:53;97136.38;;;1.84;91.25
69171;BME280;56279;47.902;12.308;2023-02-14T09:06:54;97133.78;;;1.98;91.96
69171;BME280;56279;47.902;12.308;2023-02-14T09:08:56;97137.13;;;2.07;91.32
69171;BME280;56279;47.902;12.308;2023-02-14T09:10:58;97129.41;;;2.14;91.29
69171;BME280;56279;47.902;12.308;2023-02-14T09:12:59;97135.59;;;2.13;90.83
69171;BME280;56279;47.902;12.308;2023-02-14T09:15:00;97134.34;;;2.08;90.63
69171;BME280;56279;47.902;12.308;2023-02-14T09:17:03;97131.63;;;2.02;90.99
69171;BME280;56279;47.902;12.308;2023-02-14T09:19:06;97125.81;;;2.00;90.21
69171;BME280;56279;47.902;12.308;2023-02-14T09:21:10;97123.56;;;1.97;90.61
69171;BME280;56279;47.902;12.308;2023-02-14T09:23:13;97121.47;;;1.92;91.06
69171;BME280;56279;47.902;12.308;2023-02-14T09:25:16;97132.19;;;1.97;90.42
69171;BME280;56279;47.902;12.308;2023-02-14T09:27:18;97131.91;;;2.07;90.47
69171;BME280;56279;47.902;12.308;2023-02-14T09:29:20;97132.63;;;2.16;90.58
69171;BME280;56279;47.902;12.308;2023-02-14T09:31:23;97134.69;;;2.20;90.68
69171;BME280;56279;47.902;12.308;2023-02-14T09:33:28;97128.94;;;2.25;90.01
69171;BME280;56279;47.902;12.308;2023-02-14T09:35:31;97122.03;;;2.32;90.03
69171;BME280;56279;47.902;12.308;2023-02-14T09:37:32;97124.47;;;2.33;90.59
69171;BME280;56279;47.902;12.308;2023-02-14T09:39:52;97124.47;;;2.19;89.78
69171;BME280;56279;47.902;12.308;2023-02-14T09:42:18;97127.88;;;2.04;90.79
69171;BME280;56279;47.902;12.308;2023-02-14T09:44:30;97127.06;;;2.04;90.00
69171;BME280;56279;47.902;12.308;2023-02-14T09:46:47;97130.38;;;2.13;90.30
69171;BME280;56279;47.902;12.308;2023-02-14T09:48:51;97133.59;;;2.29;89.96
69171;BME280;56279;47.902;12.308;2023-02-14T09:51:04;97128.94;;;2.39;90.05
69171;BME280;56279;47.902;12.308;2023-02-14T09:53:32;97121.59;;;2.28;89.56
69171;BME280;56279;47.902;12.308;2023-02-14T09:55:40;97129.03;;;2.31;89.99
69171;BME280;56279;47.902;12.308;2023-02-14T10:00:37;97132.63;;;2.16;89.74
69171;BME280;56279;47.902;12.308;2023-02-14T10:05:20;97128.31;;;2.37;90.15
69171;BME280;56279;47.902;12.308;2023-02-14T10:08:15;97130.19;;;2.58;89.59
69171;BME280;56279;47.902;12.308;2023-02-14T10:16:18;97129.38;;;2.93;88.65
69171;BME280;56279;47.902;12.308;2023-02-14T10:18:31;97124.59;;;2.97;88.54
69171;BME280;56279;47.902;12.308;2023-02-14T10:25:32;97123.72;;;2.90;88.30
69171;BME280;56279;47.902;12.308;2023-02-14T10:27:44;97114.91;;;2.91;88.59
69171;BME280;56279;47.902;12.308;2023-02-14T10:29:47;97113.66;;;2.87;88.29
69171;BME280;56279;47.902;12.308;2023-02-14T10:31:59;97120.91;;;2.70;88.38
69171;BME280;56279;47.902;12.308;2023-02-14T10:34:08;97119.13;;;2.70;88.55
69171;BME280;56279;47.902;12.308;2023-02-14T10:39:16;97123.00;;;2.96;88.68
69171;BME280;56279;47.902;12.308;2023-02-14T10:42:24;97114.00;;;3.19;88.07
69171;BME280;56279;47.902;12.308;2023-02-14T10:47:34;97105.47;;;3.53;87.03
69171;BME280;56279;47.902;12.308;2023-02-14T10:49:48;97111.16;;;3.63;86.39
69171;BME280;56279;47.902;12.308;2023-02-14T10:54:36;97107.91;;;3.55;87.11
69171;BME280;56279;47.902;12.308;2023-02-14T10:56:44;97100.00;;;3.48;86.38
69171;BME280;56279;47.902;12.308;2023-02-14T10:58:49;97102.50;;;3.35;86.72
69171;BME280;56279;47.902;12.308;2023-02-14T11:00:58;97100.78;;;3.21;86.64
69171;BME280;56279;47.902;12.308;2023-02-14T11:03:05;97097.91;;;3.16;86.41
69171;BME280;56279;47.902;12.308;2023-02-14T11:05:10;97091.56;;;3.25;86.73
69171;BME280;56279;47.902;12.308;2023-02-14T11:07:19;97085.66;;;3.37;86.33
69171;BME280;56279;47.902;12.308;2023-02-14T11:09:21;97079.69;;;3.43;86.94
69171;BME280;56279;47.902;12.308;2023-02-14T11:11:27;97081.31;;;3.44;86.66
69171;BME280;56279;47.902;12.308;2023-02-14T11:13:36;97078.56;;;3.53;86.69
69171;BME280;56279;47.902;12.308;2023-02-14T11:15:39;97078.63;;;3.59;86.41
69171;BME280;56279;47.902;12.308;2023-02-14T11:17:41;97085.63;;;3.59;86.09
69171;BME280;56279;47.902;12.308;2023-02-14T11:19:55;97087.34;;;3.45;86.68
69171;BME280;56279;47.902;12.308;2023-02-14T11:21:58;97073.72;;;3.49;86.76
69171;BME280;56279;47.902;12.308;2023-02-14T11:24:00;97066.31;;;3.53;87.02
69171;BME280;56279;47.902;12.308;2023-02-14T11:28:22;97065.31;;;3.54;86.90
69171;BME280;56279;47.902;12.308;2023-02-14T11:30:40;97063.66;;;3.46;87.02
69171;BME280;56279;47.902;12.308;2023-02-14T11:32:48;97063.84;;;3.45;86.68
69171;BME280;56279;47.902;12.308;2023-02-14T11:35:06;97065.66;;;3.44;87.62
69171;BME280;56279;47.902;12.308;2023-02-14T11:37:25;97062.47;;;3.49;87.24
69171;BME280;56279;47.902;12.308;2023-02-14T11:39:32;97061.53;;;3.57;87.79
69171;BME280;56279;47.902;12.308;2023-02-14T11:41:48;97062.38;;;3.64;87.39
69171;BME280;56279;47.902;12.308;2023-02-14T11:43:50;97055.81;;;3.74;87.36
69171;BME280;56279;47.902;12.308;2023-02-14T11:50:23;97051.03;;;3.78;87.76
69171;BME280;56279;47.902;12.308;2023-02-14T11:52:28;97043.25;;;3.84;87.53
69171;BME280;56279;47.902;12.308;2023-02-14T11:54:34;97036.25;;;3.91;87.49
69171;BME280;56279;47.902;12.308;2023-02-14T11:56:46;97038.28;;;3.96;87.12
69171;BME280;56279;47.902;12.308;2023-02-14T11:58:53;97039.34;;;4.08;87.15
69171;BME280;56279;47.902;12.308;2023-02-14T12:00:58;97031.53;;;4.14;86.77
69171;BME280;56279;47.902;12.308;2023-02-14T12:03:02;97032.72;;;4.12;86.70
69171;BME280;56279;47.902;12.308;2023-02-14T12:09:30;97027.47;;;4.05;86.90
69171;BME280;56279;47.902;12.308;2023-02-14T12:11:33;97022.41;;;3.97;87.32
69171;BME280;56279;47.902;12.308;2023-02-14T12:13:34;97019.75;;;3.84;87.29
69171;BME280;56279;47.902;12.308;2023-02-14T12:15:50;97013.81;;;3.69;87.50
69171;BME280;56279;47.902;12.308;2023-02-14T12:17:58;97013.78;;;3.63;87.98
69171;BME280;56279;47.902;12.308;2023-02-14T12:20:20;97022.75;;;3.54;87.81